createdAt,value
2018-11-10T00:01:14.976Z,23.70
2018-11-10T00:03:44.768Z,24.70
2018-11-10T00:06:15.844Z,25.50
2018-11-10T00:08:44.900Z,29.00
2018-11-10T00:11:13.479Z,28.57
2018-11-10T00:13:42.608Z,24.40
2018-11-10T00:16:12.539Z,30.10
2018-11-10T00:18:41.254Z,30.13
2018-11-10T00:21:11.077Z,27.23
2018-11-10T00:23:41.355Z,24.87
2018-11-10T00:26:11.372Z,28.40
2018-11-10T00:28:40.496Z,26.33
2018-11-10T00:31:09.632Z,27.03
2018-11-10T00:33:39.768Z,25.73
2018-11-10T00:36:10.038Z,24.53
2018-11-10T00:38:39.415Z,25.33
2018-11-10T00:41:19.641Z,22.13
2018-11-10T00:43:49.503Z,24.80
2018-11-10T00:46:18.267Z,22.97
2018-11-10T00:48:47.391Z,29.33
2018-11-10T00:51:17.170Z,22.33
2018-11-10T00:53:47.980Z,24.03
2018-11-10T00:56:18.744Z,25.60
2018-11-10T00:58:50.325Z,23.30
2018-11-10T01:01:19.715Z,24.03
2018-11-10T01:03:48.204Z,29.63
2018-11-10T01:06:16.889Z,25.90
2018-11-10T01:08:46.611Z,25.30
2018-11-10T01:11:16.544Z,20.80
2018-11-10T01:14:01.006Z,24.00
2018-11-10T01:16:31.894Z,25.90
2018-11-10T01:19:01.681Z,26.83
2018-11-10T01:21:31.558Z,28.00
2018-11-10T01:24:00.981Z,26.07
2018-11-10T01:26:30.717Z,22.97
2018-11-10T01:28:59.521Z,28.30
2018-11-10T01:31:30.043Z,20.63
2018-11-10T01:33:59.977Z,26.03
2018-11-10T01:36:29.032Z,26.27
2018-11-10T01:38:58.254Z,21.87
2018-11-10T01:41:27.119Z,19.60
2018-11-10T01:43:59.247Z,23.57
2018-11-10T01:46:30.589Z,25.77
2018-11-10T01:49:00.004Z,23.73
2018-11-10T01:51:30.020Z,28.23
2018-11-10T01:53:59.612Z,22.13
2018-11-10T01:56:28.696Z,22.17
2018-11-10T01:58:58.796Z,22.10
2018-11-10T02:01:28.159Z,25.60
2018-11-10T02:03:59.754Z,25.80
2018-11-10T02:06:30.898Z,28.30
2018-11-10T02:09:01.040Z,24.20
2018-11-10T02:11:31.031Z,22.20
2018-11-10T02:14:00.555Z,23.97
2018-11-10T02:16:31.270Z,26.50
2018-11-10T02:19:00.623Z,30.00
2018-11-10T02:21:29.763Z,24.40
2018-11-10T02:24:00.508Z,24.83
2018-11-10T02:26:31.515Z,27.73
2018-11-10T02:29:00.932Z,25.93
2018-11-10T02:31:31.970Z,22.23
2018-11-10T02:34:02.056Z,23.10
2018-11-10T02:36:35.287Z,26.50
2018-11-10T02:39:04.598Z,27.83
2018-11-10T02:41:33.874Z,23.53
2018-11-10T02:44:03.310Z,27.60
2018-11-10T02:46:32.970Z,28.97
2018-11-10T02:49:02.832Z,28.37
2018-11-10T02:51:33.089Z,26.40
2018-11-10T02:54:02.121Z,23.67
2018-11-10T02:56:32.928Z,29.37
2018-11-10T02:59:03.883Z,28.33
2018-11-10T03:01:33.691Z,28.97
2018-11-10T03:04:05.164Z,24.47
2018-11-10T03:06:35.730Z,24.77
2018-11-10T03:09:05.812Z,24.43
2018-11-10T03:11:36.415Z,25.20
2018-11-10T03:14:07.357Z,25.20
2018-11-10T03:16:37.972Z,25.70
2018-11-10T03:19:07.420Z,27.67
2018-11-10T03:21:36.290Z,27.63
2018-11-10T03:24:05.196Z,24.50
2018-11-10T03:26:33.952Z,29.20
2018-11-10T03:29:02.759Z,26.57
2018-11-10T03:31:34.577Z,30.90
2018-11-10T03:34:04.080Z,26.93
2018-11-10T03:36:33.521Z,26.53
2018-11-10T03:39:04.067Z,29.40
2018-11-10T03:41:34.012Z,25.63
2018-11-10T03:44:02.656Z,25.23
2018-11-10T03:46:32.319Z,31.00
2018-11-10T03:49:02.866Z,29.37
2018-11-10T03:51:33.395Z,22.57
2018-11-10T03:54:04.528Z,27.47
2018-11-10T03:56:34.479Z,28.70
2018-11-10T03:59:04.117Z,26.43
2018-11-10T04:01:33.358Z,28.13
2018-11-10T04:04:04.190Z,29.70
2018-11-10T04:06:33.221Z,25.40
2018-11-10T04:09:03.302Z,30.57
2018-11-10T04:11:32.085Z,27.80
2018-11-10T04:14:01.434Z,24.73
2018-11-10T04:16:30.103Z,31.17
2018-11-10T04:19:00.115Z,30.43
2018-11-10T04:21:29.016Z,30.47
2018-11-10T04:23:58.375Z,32.90
2018-11-10T04:26:28.264Z,27.23
2018-11-10T04:28:58.196Z,33.80
2018-11-10T04:31:27.989Z,34.30
2018-11-10T04:33:57.315Z,28.73
2018-11-10T04:36:27.555Z,34.20
2018-11-10T04:38:57.200Z,38.53
2018-11-10T04:41:26.756Z,27.17
2018-11-10T04:43:56.572Z,33.37
2018-11-10T04:46:26.832Z,30.37
2018-11-10T04:48:56.291Z,29.53
2018-11-10T04:51:24.800Z,28.73
2018-11-10T04:53:53.377Z,30.77
2018-11-10T04:56:22.997Z,32.10
2018-11-10T04:58:53.596Z,33.73
2018-11-10T05:01:23.211Z,25.57
2018-11-10T05:03:52.141Z,28.40
2018-11-10T05:06:23.927Z,28.80
2018-11-10T05:08:52.471Z,30.87
2018-11-10T05:11:22.379Z,27.10
2018-11-10T05:13:52.560Z,30.47
2018-11-10T05:16:21.368Z,34.90
2018-11-10T05:18:50.667Z,30.43
2018-11-10T05:21:20.044Z,25.67
2018-11-10T05:23:50.105Z,35.87
2018-11-10T05:26:18.867Z,31.10
2018-11-10T05:28:49.805Z,31.97
2018-11-10T05:31:19.367Z,34.80
2018-11-10T05:33:48.302Z,31.43
2018-11-10T05:36:18.524Z,33.17
2018-11-10T05:38:48.427Z,37.47
2018-11-10T05:41:18.560Z,41.67
2018-11-10T05:43:47.323Z,40.33
2018-11-10T05:46:18.220Z,35.33
2018-11-10T05:48:48.471Z,35.27
2018-11-10T05:51:17.251Z,31.13
2018-11-10T05:53:47.436Z,32.13
2018-11-10T05:56:17.129Z,34.63
2018-11-10T05:58:47.912Z,35.53
2018-11-10T06:01:16.769Z,28.90
2018-11-10T06:03:47.372Z,32.17
2018-11-10T06:06:16.740Z,35.40
2018-11-10T06:08:46.691Z,31.00
2018-11-10T06:11:15.273Z,34.30
2018-11-10T06:13:44.429Z,34.70
2018-11-10T06:16:14.583Z,32.90
2018-11-10T06:18:44.479Z,34.10
2018-11-10T06:21:14.993Z,33.07
2018-11-10T06:23:43.943Z,32.27
2018-11-10T06:26:13.635Z,33.40
2018-11-10T06:28:43.250Z,35.17
2018-11-10T06:31:13.159Z,35.80
2018-11-10T06:33:42.853Z,32.77
2018-11-10T06:36:12.439Z,31.60
2018-11-10T06:38:41.942Z,30.13
2018-11-10T06:41:11.406Z,35.00
2018-11-10T06:43:42.542Z,28.10
2018-11-10T06:46:13.045Z,30.37
2018-11-10T06:48:42.837Z,32.70
2018-11-10T06:51:19.138Z,27.20
2018-11-10T06:53:47.964Z,33.90
2018-11-10T06:56:16.789Z,35.40
2018-11-10T06:58:46.096Z,32.00
2018-11-10T07:01:14.987Z,31.13
2018-11-10T07:03:47.241Z,34.07
2018-11-10T07:06:16.175Z,31.17
2018-11-10T07:08:47.179Z,33.13
2018-11-10T07:11:17.192Z,28.83
2018-11-10T07:13:48.197Z,28.50
2018-11-10T07:16:17.849Z,37.23
2018-11-10T07:18:46.984Z,34.47
2018-11-10T07:21:16.001Z,31.00
2018-11-10T07:23:46.376Z,33.13
2018-11-10T07:26:16.786Z,27.50
2018-11-10T07:28:45.886Z,29.73
2018-11-10T07:31:15.372Z,35.97
2018-11-10T07:33:46.851Z,26.97
2018-11-10T07:36:15.936Z,25.97
2018-11-10T07:38:45.131Z,31.97
2018-11-10T07:41:15.059Z,27.00
2018-11-10T07:43:43.595Z,34.60
2018-11-10T07:46:13.124Z,30.27
2018-11-10T07:48:42.737Z,38.03
2018-11-10T07:51:13.379Z,34.20
2018-11-10T07:53:43.420Z,26.60
2018-11-10T07:56:12.763Z,27.07
2018-11-10T07:58:42.492Z,28.87
2018-11-10T08:01:11.380Z,27.90
2018-11-10T08:03:41.762Z,31.03
2018-11-10T08:06:13.095Z,32.33
2018-11-10T08:08:43.133Z,26.67
2018-11-10T08:11:12.252Z,27.53
2018-11-10T08:13:42.233Z,30.90
2018-11-10T08:16:11.342Z,27.83
2018-11-10T08:18:41.214Z,25.93
2018-11-10T08:21:10.219Z,30.83
2018-11-10T08:23:41.240Z,29.90
2018-11-10T08:26:14.798Z,30.33
2018-11-10T08:28:43.696Z,26.67
2018-11-10T08:31:14.902Z,28.90
2018-11-10T08:33:44.213Z,26.50
2018-11-10T08:36:13.463Z,28.53
2018-11-10T08:38:45.712Z,28.70
2018-11-10T08:41:15.505Z,28.27
2018-11-10T08:43:45.136Z,25.90
2018-11-10T08:46:14.048Z,26.77
2018-11-10T08:48:43.694Z,35.40
2018-11-10T08:51:14.235Z,26.33
2018-11-10T08:53:43.851Z,26.23
2018-11-10T08:56:13.052Z,31.20
2018-11-10T08:58:44.837Z,28.97
2018-11-10T09:01:15.821Z,29.90
2018-11-10T09:03:47.047Z,26.77
2018-11-10T09:06:17.108Z,23.83
2018-11-10T09:08:45.864Z,23.23
2018-11-10T09:11:14.386Z,24.67
2018-11-10T09:13:43.797Z,24.87
2018-11-10T09:16:14.202Z,29.90
2018-11-10T09:18:43.519Z,25.53
2018-11-10T09:21:13.940Z,30.40
2018-11-10T09:23:43.672Z,20.60
2018-11-10T09:26:14.072Z,24.00
2018-11-10T09:28:43.186Z,25.30
2018-11-10T09:31:12.677Z,22.43
2018-11-10T09:33:42.284Z,22.53
2018-11-10T09:36:13.316Z,21.63
2018-11-10T09:38:43.695Z,25.37
2018-11-10T09:41:13.446Z,20.83
2018-11-10T09:43:43.504Z,19.97
2018-11-10T09:46:13.565Z,25.90
2018-11-10T09:48:42.736Z,22.77
2018-11-10T09:51:12.401Z,19.33
2018-11-10T09:53:42.750Z,23.13
2018-11-10T09:56:14.188Z,21.83
2018-11-10T09:58:44.276Z,22.30
2018-11-10T10:01:13.618Z,20.20
2018-11-10T10:03:43.520Z,22.23
2018-11-10T10:06:13.624Z,20.50
2018-11-10T10:08:44.198Z,21.40
2018-11-10T10:11:17.221Z,22.00
2018-11-10T10:13:46.340Z,16.97
2018-11-10T10:16:17.640Z,19.87
2018-11-10T10:18:47.865Z,23.07
2018-11-10T10:21:18.855Z,20.80
2018-11-10T10:23:49.166Z,19.23
2018-11-10T10:26:18.862Z,23.40
2018-11-10T10:28:48.649Z,17.90
2018-11-10T10:31:19.617Z,14.50
2018-11-10T10:33:48.666Z,22.37
2018-11-10T10:36:17.197Z,23.67
2018-11-10T10:38:46.765Z,19.90
2018-11-10T10:41:17.696Z,22.60
2018-11-10T10:43:47.009Z,21.23
2018-11-10T10:46:18.540Z,17.67
2018-11-10T10:48:47.873Z,23.77
2018-11-10T10:51:16.818Z,20.27
2018-11-10T10:53:48.252Z,18.07
2018-11-10T10:56:18.975Z,20.07
2018-11-10T10:58:48.308Z,17.77
2018-11-10T11:01:22.973Z,19.50
2018-11-10T11:03:56.645Z,21.63
2018-11-10T11:06:25.976Z,21.33
2018-11-10T11:08:56.994Z,17.70
2018-11-10T11:11:26.585Z,18.10
2018-11-10T11:13:55.880Z,15.37
2018-11-10T11:16:25.324Z,18.63
2018-11-10T11:18:54.487Z,18.83
2018-11-10T11:21:23.952Z,15.70
2018-11-10T11:23:55.882Z,17.90
2018-11-10T11:26:24.392Z,19.10
2018-11-10T11:28:54.446Z,18.30
2018-11-10T11:31:24.585Z,18.73
2018-11-10T11:33:54.908Z,19.07
2018-11-10T11:36:24.680Z,16.50
2018-11-10T11:38:54.547Z,17.27
2018-11-10T11:41:24.172Z,16.17
2018-11-10T11:43:53.365Z,15.63
2018-11-10T11:46:23.970Z,15.97
2018-11-10T11:48:52.492Z,23.27
2018-11-10T11:51:22.624Z,13.90
2018-11-10T11:53:52.111Z,17.97
2018-11-10T11:56:22.339Z,16.90
2018-11-10T11:58:51.707Z,13.40
2018-11-10T12:01:21.474Z,16.97
2018-11-10T12:03:51.839Z,15.37
2018-11-10T12:06:22.556Z,14.30
2018-11-10T12:08:54.084Z,17.60
2018-11-10T12:11:25.988Z,15.40
2018-11-10T12:13:55.819Z,18.47
2018-11-10T12:16:27.767Z,18.30
2018-11-10T12:18:56.861Z,16.60
2018-11-10T12:21:28.003Z,15.13
2018-11-10T12:23:59.715Z,13.70
2018-11-10T12:26:30.514Z,14.33
2018-11-10T12:29:00.031Z,13.80
2018-11-10T12:31:29.595Z,14.67
2018-11-10T12:33:59.333Z,15.73
2018-11-10T12:36:31.789Z,17.33
2018-11-10T12:39:01.308Z,17.57
2018-11-10T12:41:29.866Z,15.20
2018-11-10T12:43:59.451Z,37.60
2018-11-10T12:46:29.137Z,27.33
2018-11-10T12:48:58.280Z,13.23
2018-11-10T12:51:27.389Z,14.63
2018-11-10T12:53:57.980Z,14.77
2018-11-10T12:56:28.578Z,13.30
2018-11-10T12:58:58.662Z,11.27
2018-11-10T13:01:28.920Z,15.00
2018-11-10T13:03:57.783Z,14.47
2018-11-10T13:06:27.875Z,13.07
2018-11-10T13:08:57.104Z,12.57
2018-11-10T13:11:27.585Z,10.93
2018-11-10T13:13:57.247Z,11.93
2018-11-10T13:16:27.631Z,14.80
2018-11-10T13:18:57.694Z,12.50
2018-11-10T13:21:27.717Z,11.60
2018-11-10T13:23:56.740Z,12.30
2018-11-10T13:26:25.673Z,15.07
2018-11-10T13:28:54.868Z,11.07
2018-11-10T13:31:24.824Z,9.43
2018-11-10T13:33:56.740Z,16.30
2018-11-10T13:36:26.345Z,11.43
2018-11-10T13:38:56.266Z,13.93
2018-11-10T13:41:28.841Z,9.83
2018-11-10T13:43:58.377Z,11.93
2018-11-10T13:46:29.074Z,10.13
2018-11-10T13:49:00.238Z,14.03
2018-11-10T13:51:31.227Z,10.50
2018-11-10T13:54:01.232Z,13.67
2018-11-10T13:56:31.782Z,11.87
2018-11-10T13:59:02.536Z,9.70
2018-11-10T14:01:33.451Z,9.37
2018-11-10T14:04:04.444Z,12.37
2018-11-10T14:06:34.459Z,7.57
2018-11-10T14:09:04.678Z,10.17
2018-11-10T14:11:40.566Z,9.47
2018-11-10T14:14:11.697Z,13.87
2018-11-10T14:16:41.468Z,11.10
2018-11-10T14:19:10.113Z,13.47
2018-11-10T14:21:38.646Z,10.57
2018-11-10T14:24:11.815Z,11.00
2018-11-10T14:26:42.108Z,11.07
2018-11-10T14:29:11.619Z,10.40
2018-11-10T14:31:42.697Z,10.20
2018-11-10T14:34:13.355Z,9.77
2018-11-10T14:36:41.999Z,11.67
2018-11-10T14:39:13.696Z,12.67
2018-11-10T14:41:44.703Z,12.33
2018-11-10T14:44:16.204Z,10.07
2018-11-10T14:46:53.287Z,11.67
2018-11-10T14:49:27.407Z,12.20
2018-11-10T14:51:57.543Z,13.50
2018-11-10T14:54:26.755Z,13.73
2018-11-10T14:56:57.517Z,13.00
2018-11-10T14:59:29.208Z,12.33
2018-11-10T15:01:58.681Z,12.03
2018-11-10T15:04:32.671Z,12.93
2018-11-10T15:07:03.297Z,13.50
2018-11-10T15:09:32.609Z,12.23
2018-11-10T15:12:01.813Z,14.97
2018-11-10T15:14:31.208Z,15.40
2018-11-10T15:17:04.613Z,13.10
2018-11-10T15:19:34.524Z,12.70
2018-11-10T15:22:04.517Z,15.63
2018-11-10T15:24:33.990Z,11.97
2018-11-10T15:27:03.878Z,14.40
2018-11-10T15:29:33.964Z,12.90
2018-11-10T15:32:02.877Z,13.00
2018-11-10T15:34:31.985Z,14.00
2018-11-10T15:37:01.691Z,14.17
2018-11-10T15:39:34.589Z,18.27
2018-11-10T15:42:04.501Z,13.27
2018-11-10T15:44:35.531Z,18.00
2018-11-10T15:47:05.736Z,15.07
2018-11-10T15:49:35.889Z,14.40
2018-11-10T15:52:05.027Z,18.60
2018-11-10T15:54:34.544Z,12.67
2018-11-10T15:57:05.461Z,15.53
2018-11-10T15:59:34.858Z,19.87
2018-11-10T16:02:03.720Z,14.60
2018-11-10T16:04:32.327Z,13.60
2018-11-10T16:07:02.201Z,16.20
2018-11-10T16:09:33.932Z,11.77
2018-11-10T16:12:06.274Z,16.70
2018-11-10T16:14:34.921Z,17.23
2018-11-10T16:17:03.743Z,16.90
2018-11-10T16:19:33.169Z,17.43
2018-11-10T16:22:06.172Z,19.87
2018-11-10T16:24:36.126Z,24.27
2018-11-10T16:27:05.282Z,17.70
2018-11-10T16:29:35.132Z,20.77
2018-11-10T16:32:04.356Z,17.97
2018-11-10T16:34:33.689Z,20.30
2018-11-10T16:37:05.057Z,25.40
2018-11-10T16:39:37.666Z,20.27
2018-11-10T16:42:09.197Z,38.10
2018-11-10T16:44:39.205Z,32.53
2018-11-10T16:47:08.136Z,33.37
2018-11-10T16:49:37.359Z,31.37
2018-11-10T16:52:06.926Z,36.40
2018-11-10T16:54:37.384Z,39.43
2018-11-10T16:57:06.264Z,30.10
2018-11-10T16:59:35.451Z,41.77
2018-11-10T17:02:06.349Z,36.43
2018-11-10T17:04:36.743Z,74.80
2018-11-10T17:07:06.169Z,30.70
2018-11-10T17:09:37.005Z,32.40
2018-11-10T17:12:08.069Z,43.70
2018-11-10T17:14:37.376Z,56.90
2018-11-10T17:17:08.514Z,45.00
2018-11-10T17:19:39.964Z,50.57
2018-11-10T17:22:08.912Z,28.03
2018-11-10T17:24:37.585Z,32.60
2018-11-10T17:27:08.230Z,37.13
2018-11-10T17:29:40.818Z,31.03
2018-11-10T17:32:09.890Z,23.70
2018-11-10T17:34:42.039Z,23.77
2018-11-10T17:37:11.021Z,19.80
2018-11-10T17:39:40.139Z,17.67
2018-11-10T17:42:10.129Z,22.57
2018-11-10T17:44:40.115Z,25.23
2018-11-10T17:47:10.654Z,23.57
2018-11-10T17:49:40.697Z,22.03
2018-11-10T17:52:10.881Z,16.23
2018-11-10T17:54:40.484Z,15.77
2018-11-10T17:57:10.215Z,20.90
2018-11-10T17:59:40.768Z,20.43
2018-11-10T18:02:10.640Z,21.70
2018-11-10T18:04:40.260Z,17.90
2018-11-10T18:07:09.130Z,20.63
2018-11-10T18:09:38.476Z,22.33
2018-11-10T18:12:08.911Z,18.60
2018-11-10T18:14:39.836Z,14.13
2018-11-10T18:17:09.411Z,16.60
2018-11-10T18:19:40.959Z,21.13
2018-11-10T18:22:11.088Z,24.83
2018-11-10T18:24:40.910Z,36.13
2018-11-10T18:27:11.837Z,43.37
2018-11-10T18:29:40.704Z,30.67
2018-11-10T18:32:10.028Z,24.33
2018-11-10T18:34:42.975Z,26.47
2018-11-10T18:37:11.944Z,30.30
2018-11-10T18:39:40.984Z,19.03
2018-11-10T18:42:25.205Z,16.97
2018-11-10T18:44:55.069Z,22.57
2018-11-10T18:47:24.425Z,19.90
2018-11-10T18:49:53.685Z,18.13
2018-11-10T18:52:23.456Z,16.47
2018-11-10T18:54:52.272Z,15.60
2018-11-10T18:57:22.060Z,17.67
2018-11-10T18:59:51.747Z,17.80
2018-11-10T19:02:20.735Z,15.43
2018-11-10T19:04:50.476Z,18.33
2018-11-10T19:07:22.834Z,17.77
2018-11-10T19:09:52.940Z,17.23
2018-11-10T19:12:22.926Z,13.87
2018-11-10T19:14:52.779Z,19.53
2018-11-10T19:17:22.918Z,19.80
2018-11-10T19:19:53.605Z,18.83
2018-11-10T19:22:26.220Z,22.00
2018-11-10T19:24:55.292Z,28.43
2018-11-10T19:27:25.034Z,25.47
2018-11-10T19:29:57.295Z,26.73
2018-11-10T19:32:27.775Z,35.57
2018-11-10T19:34:56.816Z,32.10
2018-11-10T19:37:25.995Z,42.90
2018-11-10T19:39:55.055Z,32.00
2018-11-10T19:42:24.092Z,21.00
2018-11-10T19:44:53.758Z,28.13
2018-11-10T19:47:22.928Z,33.13
2018-11-10T19:49:53.922Z,42.23
2018-11-10T19:52:23.167Z,49.93
2018-11-10T19:54:54.357Z,45.13
2018-11-10T19:57:25.093Z,45.50
2018-11-10T19:59:54.515Z,35.47
2018-11-10T20:02:25.273Z,32.20
2018-11-10T20:04:55.376Z,38.57
2018-11-10T20:07:26.352Z,23.17
2018-11-10T20:09:57.000Z,24.60
2018-11-10T20:12:26.728Z,26.00
2018-11-10T20:14:55.815Z,26.40
2018-11-10T20:17:25.579Z,25.87
2018-11-10T20:19:54.657Z,25.17
2018-11-10T20:22:23.662Z,28.17
2018-11-10T20:24:54.541Z,23.93
2018-11-10T20:27:23.871Z,31.10
2018-11-10T20:29:53.175Z,37.17
2018-11-10T20:32:21.982Z,28.10
2018-11-10T20:34:52.540Z,29.00
2018-11-10T20:37:22.782Z,33.03
2018-11-10T20:39:52.974Z,29.63
2018-11-10T20:42:21.642Z,20.83
2018-11-10T20:44:51.574Z,21.17
2018-11-10T20:47:21.063Z,24.03
2018-11-10T20:49:51.258Z,24.57
2018-11-10T20:52:20.374Z,25.53
2018-11-10T20:54:49.800Z,17.63
2018-11-10T20:57:18.365Z,16.80
2018-11-10T20:59:48.500Z,22.03
2018-11-10T21:02:17.671Z,18.43
2018-11-10T21:04:46.748Z,19.47
2018-11-10T21:07:15.852Z,17.67
2018-11-10T21:09:45.366Z,19.83
2018-11-10T21:12:14.657Z,20.70
2018-11-10T21:14:45.788Z,18.23
2018-11-10T21:17:16.059Z,20.27
2018-11-10T21:19:45.634Z,14.33
2018-11-10T21:22:15.744Z,19.53
2018-11-10T21:24:46.792Z,15.50
2018-11-10T21:27:16.364Z,20.43
2018-11-10T21:29:45.909Z,15.33
2018-11-10T21:32:15.373Z,18.23
2018-11-10T21:34:45.043Z,18.70
2018-11-10T21:37:13.950Z,18.20
2018-11-10T21:39:44.479Z,14.57
2018-11-10T21:42:14.445Z,18.63
2018-11-10T21:44:44.678Z,16.13
2018-11-10T21:47:13.709Z,16.37
2018-11-10T21:49:43.417Z,22.43
2018-11-10T21:52:12.926Z,21.40
2018-11-10T21:54:42.409Z,21.37
2018-11-10T21:57:13.316Z,19.63
2018-11-10T21:59:43.236Z,18.43
2018-11-10T22:02:14.056Z,17.40
2018-11-10T22:04:43.501Z,15.90
2018-11-10T22:07:27.050Z,20.70
2018-11-10T22:09:59.756Z,27.53
2018-11-10T22:12:29.955Z,16.73
2018-11-10T22:14:59.796Z,20.00
2018-11-10T22:17:29.400Z,15.57
2018-11-10T22:19:57.939Z,16.03
2018-11-10T22:22:27.060Z,20.03
2018-11-10T22:24:56.093Z,15.47
2018-11-10T22:27:26.196Z,18.53
2018-11-10T22:29:55.533Z,21.50
2018-11-10T22:32:26.685Z,16.40
2018-11-10T22:34:57.656Z,15.93
2018-11-10T22:37:28.261Z,17.53
2018-11-10T22:39:56.815Z,21.10
2018-11-10T22:42:25.366Z,20.10
2018-11-10T22:44:55.051Z,20.03
2018-11-10T22:47:25.177Z,21.90
2018-11-10T22:52:32.187Z,16.37
2018-11-10T22:55:02.223Z,17.50
2018-11-10T22:57:33.279Z,14.23
2018-11-10T23:00:03.742Z,14.60
2018-11-10T23:02:34.306Z,15.87
2018-11-10T23:05:04.216Z,18.33
2018-11-10T23:07:42.121Z,14.63
2018-11-10T23:10:11.680Z,16.20
2018-11-10T23:12:41.715Z,19.53
2018-11-10T23:15:11.989Z,13.53
2018-11-10T23:17:43.256Z,14.57
2018-11-10T23:20:13.999Z,16.80
2018-11-10T23:22:43.152Z,15.37
2018-11-10T23:25:14.428Z,18.20
2018-11-10T23:27:44.967Z,17.30
2018-11-10T23:30:17.604Z,15.27
2018-11-10T23:32:46.532Z,16.20
2018-11-10T23:35:16.425Z,15.80
2018-11-10T23:37:45.829Z,17.67
2018-11-10T23:40:16.924Z,18.50
2018-11-10T23:42:46.430Z,19.33
2018-11-10T23:45:18.447Z,15.40
2018-11-10T23:47:48.044Z,21.13
2018-11-10T23:50:18.250Z,15.33
2018-11-10T23:52:49.748Z,18.03
2018-11-10T23:55:19.851Z,18.93
2018-11-10T23:57:50.672Z,19.13
